sensor_id;sensor_type;location;lat;lon;timestamp;P1;P2;P0
44871;PMS7003;30602;51.060;17.226;2023-04-15T00:00:31;27;24;17
44871;PMS7003;30602;51.060;17.226;2023-04-15T00:04:27;29;26;19
44871;PMS7003;30602;51.060;17.226;2023-04-15T00:08:19;26;25;18
44871;PMS7003;30602;51.060;17.226;2023-04-15T00:11:44;26;24;18
44871;PMS7003;30602;51.060;17.226;2023-04-15T00:15:07;29;25;19
44871;PMS7003;30602;51.060;17.226;2023-04-15T00:18:31;28;24;17
44871;PMS7003;30602;51.060;17.226;2023-04-15T00:22:11;25;23;16
44871;PMS7003;30602;51.060;17.226;2023-04-15T00:25:49;31;26;19
44871;PMS7003;30602;51.060;17.226;2023-04-15T00:29:49;29;24;19
44871;PMS7003;30602;51.060;17.226;2023-04-15T00:33:12;25;22;15
44871;PMS7003;30602;51.060;17.226;2023-04-15T00:37:17;29;25;19
44871;PMS7003;30602;51.060;17.226;2023-04-15T00:40:36;30;25;19
44871;PMS7003;30602;51.060;17.226;2023-04-15T00:44:24;31;26;18
44871;PMS7003;30602;51.060;17.226;2023-04-15T00:48:17;27;24;19
44871;PMS7003;30602;51.060;17.226;2023-04-15T00:52:23;26;22;16
44871;PMS7003;30602;51.060;17.226;2023-04-15T00:56:45;32;28;19
44871;PMS7003;30602;51.060;17.226;2023-04-15T01:00:37;35;30;19
44871;PMS7003;30602;51.060;17.226;2023-04-15T01:04:34;29;26;19
44871;PMS7003;30602;51.060;17.226;2023-04-15T01:07:57;27;25;19
44871;PMS7003;30602;51.060;17.226;2023-04-15T01:11:36;27;26;19
44871;PMS7003;30602;51.060;17.226;2023-04-15T01:15:12;26;24;18
44871;PMS7003;30602;51.060;17.226;2023-04-15T01:19:08;26;24;17
44871;PMS7003;30602;51.060;17.226;2023-04-15T01:22:58;36;28;20
44871;PMS7003;30602;51.060;17.226;2023-04-15T01:26:42;34;25;17
44871;PMS7003;30602;51.060;17.226;2023-04-15T01:34:27;27;23;17
44871;PMS7003;30602;51.060;17.226;2023-04-15T01:38:09;30;26;19
44871;PMS7003;30602;51.060;17.226;2023-04-15T01:42:07;32;27;18
44871;PMS7003;30602;51.060;17.226;2023-04-15T01:46:45;29;25;18
44871;PMS7003;30602;51.060;17.226;2023-04-15T01:50:39;27;26;18
44871;PMS7003;30602;51.060;17.226;2023-04-15T01:54:08;29;27;18
44871;PMS7003;30602;51.060;17.226;2023-04-15T01:57:51;30;21;13
44871;PMS7003;30602;51.060;17.226;2023-04-15T02:01:46;29;26;19
44871;PMS7003;30602;51.060;17.226;2023-04-15T02:05:42;28;25;19
44871;PMS7003;30602;51.060;17.226;2023-04-15T02:09:11;33;29;19
44871;PMS7003;30602;51.060;17.226;2023-04-15T02:12:32;26;22;16
44871;PMS7003;30602;51.060;17.226;2023-04-15T02:19:57;35;27;20
44871;PMS7003;30602;51.060;17.226;2023-04-15T02:23:19;31;28;20
44871;PMS7003;30602;51.060;17.226;2023-04-15T02:26:51;34;27;20
44871;PMS7003;30602;51.060;17.226;2023-04-15T02:30:36;35;31;18
44871;PMS7003;30602;51.060;17.226;2023-04-15T02:34:04;29;28;19
44871;PMS7003;30602;51.060;17.226;2023-04-15T02:37:48;28;26;19
44871;PMS7003;30602;51.060;17.226;2023-04-15T02:41:44;31;29;19
44871;PMS7003;30602;51.060;17.226;2023-04-15T02:45:40;28;25;18
44871;PMS7003;30602;51.060;17.226;2023-04-15T02:49:56;30;28;21
44871;PMS7003;30602;51.060;17.226;2023-04-15T02:53:34;34;30;20
44871;PMS7003;30602;51.060;17.226;2023-04-15T02:57:04;33;30;22
44871;PMS7003;30602;51.060;17.226;2023-04-15T03:01:04;33;28;19
44871;PMS7003;30602;51.060;17.226;2023-04-15T03:04:37;32;29;19
44871;PMS7003;30602;51.060;17.226;2023-04-15T03:08:36;29;25;16
44871;PMS7003;30602;51.060;17.226;2023-04-15T03:12:53;24;21;16
44871;PMS7003;30602;51.060;17.226;2023-04-15T03:16:59;21;21;15
44871;PMS7003;30602;51.060;17.226;2023-04-15T03:20:19;16;16;11
44871;PMS7003;30602;51.060;17.226;2023-04-15T03:24:08;19;16;11
44871;PMS7003;30602;51.060;17.226;2023-04-15T03:27:53;19;16;11
44871;PMS7003;30602;51.060;17.226;2023-04-15T03:31:45;23;20;13
44871;PMS7003;30602;51.060;17.226;2023-04-15T03:35:26;16;14;11
44871;PMS7003;30602;51.060;17.226;2023-04-15T03:38:49;14;13;10
44871;PMS7003;30602;51.060;17.226;2023-04-15T03:42:32;11;11;9
44871;PMS7003;30602;51.060;17.226;2023-04-15T03:46:22;13;13;8
44871;PMS7003;30602;51.060;17.226;2023-04-15T03:50:17;18;16;11
44871;PMS7003;30602;51.060;17.226;2023-04-15T03:53:53;15;12;9
44871;PMS7003;30602;51.060;17.226;2023-04-15T03:57:32;8;6;5
44871;PMS7003;30602;51.060;17.226;2023-04-15T04:01:29;9;5;4
44871;PMS7003;30602;51.060;17.226;2023-04-15T04:05:16;4;3;2
44871;PMS7003;30602;51.060;17.226;2023-04-15T04:09:22;3;1;1
44871;PMS7003;30602;51.060;17.226;2023-04-15T04:13:20;1;1;0
44871;PMS7003;30602;51.060;17.226;2023-04-15T04:16:59;4;3;1
44871;PMS7003;30602;51.060;17.226;2023-04-15T04:20:53;3;3;2
44871;PMS7003;30602;51.060;17.226;2023-04-15T04:28:14;3;3;2
44871;PMS7003;30602;51.060;17.226;2023-04-15T04:32:05;5;4;3
44871;PMS7003;30602;51.060;17.226;2023-04-15T04:35:50;0;0;0
44871;PMS7003;30602;51.060;17.226;2023-04-15T04:39:32;1;0;0
44871;PMS7003;30602;51.060;17.226;2023-04-15T04:43:16;1;1;0
44871;PMS7003;30602;51.060;17.226;2023-04-15T04:46:37;2;1;0
44871;PMS7003;30602;51.060;17.226;2023-04-15T04:49:58;0;0;0
44871;PMS7003;30602;51.060;17.226;2023-04-15T04:53:40;2;2;1
44871;PMS7003;30602;51.060;17.226;2023-04-15T04:57:19;0;0;0
44871;PMS7003;30602;51.060;17.226;2023-04-15T05:00:58;1;0;0
44871;PMS7003;30602;51.060;17.226;2023-04-15T05:04:20;1;1;0
44871;PMS7003;30602;51.060;17.226;2023-04-15T05:07:40;0;0;0
44871;PMS7003;30602;51.060;17.226;2023-04-15T05:11:00;0;0;0
44871;PMS7003;30602;51.060;17.226;2023-04-15T05:14:39;1;0;0
44871;PMS7003;30602;51.060;17.226;2023-04-15T05:17:59;5;5;3
44871;PMS7003;30602;51.060;17.226;2023-04-15T05:21:21;8;8;6
44871;PMS7003;30602;51.060;17.226;2023-04-15T05:24:50;7;6;4
44871;PMS7003;30602;51.060;17.226;2023-04-15T05:28:09;3;3;2
44871;PMS7003;30602;51.060;17.226;2023-04-15T05:31:53;1;1;1
44871;PMS7003;30602;51.060;17.226;2023-04-15T05:39:36;0;0;0
44871;PMS7003;30602;51.060;17.226;2023-04-15T05:43:26;0;0;0
44871;PMS7003;30602;51.060;17.226;2023-04-15T05:47:21;0;0;0
44871;PMS7003;30602;51.060;17.226;2023-04-15T05:51:03;0;0;0
44871;PMS7003;30602;51.060;17.226;2023-04-15T05:54:49;0;0;0
44871;PMS7003;30602;51.060;17.226;2023-04-15T05:58:30;0;0;0
44871;PMS7003;30602;51.060;17.226;2023-04-15T06:01:52;1;1;1
44871;PMS7003;30602;51.060;17.226;2023-04-15T06:05:35;1;1;1
44871;PMS7003;30602;51.060;17.226;2023-04-15T06:09:29;1;1;1
44871;PMS7003;30602;51.060;17.226;2023-04-15T06:12:51;1;1;1
44871;PMS7003;30602;51.060;17.226;2023-04-15T06:16:23;1;1;1
44871;PMS7003;30602;51.060;17.226;2023-04-15T06:20:04;0;0;0
44871;PMS7003;30602;51.060;17.226;2023-04-15T06:23:24;0;0;0
44871;PMS7003;30602;51.060;17.226;2023-04-15T06:27:12;1;1;0
44871;PMS7003;30602;51.060;17.226;2023-04-15T06:30:32;2;2;1
44871;PMS7003;30602;51.060;17.226;2023-04-15T06:34:27;2;1;1
44871;PMS7003;30602;51.060;17.226;2023-04-15T06:37:49;1;1;1
44871;PMS7003;30602;51.060;17.226;2023-04-15T06:41:12;1;1;1
44871;PMS7003;30602;51.060;17.226;2023-04-15T06:45:07;1;1;1
44871;PMS7003;30602;51.060;17.226;2023-04-15T06:48:30;1;1;1
44871;PMS7003;30602;51.060;17.226;2023-04-15T06:55:43;1;1;1
44871;PMS7003;30602;51.060;17.226;2023-04-15T06:59:26;2;2;1
44871;PMS7003;30602;51.060;17.226;2023-04-15T07:02:45;2;1;1
44871;PMS7003;30602;51.060;17.226;2023-04-15T07:06:08;0;0;0
44871;PMS7003;30602;51.060;17.226;2023-04-15T07:10:04;0;0;0
44871;PMS7003;30602;51.060;17.226;2023-04-15T07:14:00;0;0;0
44871;PMS7003;30602;51.060;17.226;2023-04-15T07:17:40;0;0;0
44871;PMS7003;30602;51.060;17.226;2023-04-15T07:25:08;0;0;0
44871;PMS7003;30602;51.060;17.226;2023-04-15T07:29:10;2;0;0
44871;PMS7003;30602;51.060;17.226;2023-04-15T07:32:53;0;0;0
44871;PMS7003;30602;51.060;17.226;2023-04-15T07:36:41;1;1;1
44871;PMS7003;30602;51.060;17.226;2023-04-15T07:40:01;0;0;0
44871;PMS7003;30602;51.060;17.226;2023-04-15T07:43:23;1;1;0
44871;PMS7003;30602;51.060;17.226;2023-04-15T07:47:09;2;1;0
44871;PMS7003;30602;51.060;17.226;2023-04-15T07:51:00;0;0;0
44871;PMS7003;30602;51.060;17.226;2023-04-15T07:58:23;0;0;0
44871;PMS7003;30602;51.060;17.226;2023-04-15T08:01:43;1;1;0
44871;PMS7003;30602;51.060;17.226;2023-04-15T08:05:26;1;0;0
44871;PMS7003;30602;51.060;17.226;2023-04-15T08:08:49;4;4;3
44871;PMS7003;30602;51.060;17.226;2023-04-15T08:13:04;4;3;2
44871;PMS7003;30602;51.060;17.226;2023-04-15T08:16:58;3;3;2
44871;PMS7003;30602;51.060;17.226;2023-04-15T08:20:18;3;2;1
44871;PMS7003;30602;51.060;17.226;2023-04-15T08:23:42;2;2;2
44871;PMS7003;30602;51.060;17.226;2023-04-15T08:31:18;1;1;1
44871;PMS7003;30602;51.060;17.226;2023-04-15T08:34:41;0;0;0
44871;PMS7003;30602;51.060;17.226;2023-04-15T08:38:32;1;1;0
44871;PMS7003;30602;51.060;17.226;2023-04-15T08:42:01;0;0;0
44871;PMS7003;30602;51.060;17.226;2023-04-15T08:45:46;2;1;1
44871;PMS7003;30602;51.060;17.226;2023-04-15T08:49:08;1;1;1
44871;PMS7003;30602;51.060;17.226;2023-04-15T08:52:47;1;1;1
44871;PMS7003;30602;51.060;17.226;2023-04-15T08:56:38;0;0;0
44871;PMS7003;30602;51.060;17.226;2023-04-15T09:00:21;0;0;0
44871;PMS7003;30602;51.060;17.226;2023-04-15T09:04:49;0;0;0
44871;PMS7003;30602;51.060;17.226;2023-04-15T09:08:45;2;0;0
44871;PMS7003;30602;51.060;17.226;2023-04-15T09:12:25;0;0;0
44871;PMS7003;30602;51.060;17.226;2023-04-15T09:16:09;0;0;0
44871;PMS7003;30602;51.060;17.226;2023-04-15T09:27:39;0;0;0
44871;PMS7003;30602;51.060;17.226;2023-04-15T09:31:39;0;0;0
44871;PMS7003;30602;51.060;17.226;2023-04-15T09:35:57;2;0;0
44871;PMS7003;30602;51.060;17.226;2023-04-15T09:39:45;0;0;0
44871;PMS7003;30602;51.060;17.226;2023-04-15T09:43:40;0;0;0
44871;PMS7003;30602;51.060;17.226;2023-04-15T09:47:04;0;0;0
44871;PMS7003;30602;51.060;17.226;2023-04-15T09:54:20;2;0;0
44871;PMS7003;30602;51.060;17.226;2023-04-15T09:57:42;0;0;0
44871;PMS7003;30602;51.060;17.226;2023-04-15T10:01:52;0;0;0
44871;PMS7003;30602;51.060;17.226;2023-04-15T10:05:12;0;0;0
44871;PMS7003;30602;51.060;17.226;2023-04-15T10:09:38;0;0;0
44871;PMS7003;30602;51.060;17.226;2023-04-15T10:14:06;0;0;0
44871;PMS7003;30602;51.060;17.226;2023-04-15T10:17:28;0;0;0
44871;PMS7003;30602;51.060;17.226;2023-04-15T10:21:28;0;0;0
44871;PMS7003;30602;51.060;17.226;2023-04-15T10:25:27;0;0;0
44871;PMS7003;30602;51.060;17.226;2023-04-15T10:29:04;0;0;0
44871;PMS7003;30602;51.060;17.226;2023-04-15T10:32:54;0;0;0
44871;PMS7003;30602;51.060;17.226;2023-04-15T10:36:25;0;0;0
44871;PMS7003;30602;51.060;17.226;2023-04-15T10:44:02;0;0;0
44871;PMS7003;30602;51.060;17.226;2023-04-15T10:47:44;0;0;0
44871;PMS7003;30602;51.060;17.226;2023-04-15T10:55:36;0;0;0
44871;PMS7003;30602;51.060;17.226;2023-04-15T10:59:17;0;0;0
44871;PMS7003;30602;51.060;17.226;2023-04-15T11:11:19;1;0;0
44871;PMS7003;30602;51.060;17.226;2023-04-15T11:14:41;1;0;0
44871;PMS7003;30602;51.060;17.226;2023-04-15T11:18:25;1;0;0
44871;PMS7003;30602;51.060;17.226;2023-04-15T11:22:11;0;0;0
44871;PMS7003;30602;51.060;17.226;2023-04-15T11:25:57;0;0;0
44871;PMS7003;30602;51.060;17.226;2023-04-15T11:30:16;0;0;0
44871;PMS7003;30602;51.060;17.226;2023-04-15T11:34:21;1;0;0
44871;PMS7003;30602;51.060;17.226;2023-04-15T11:42:18;0;0;0
44871;PMS7003;30602;51.060;17.226;2023-04-15T11:49:40;0;0;0
44871;PMS7003;30602;51.060;17.226;2023-04-15T11:53:21;0;0;0
44871;PMS7003;30602;51.060;17.226;2023-04-15T11:57:05;0;0;0
44871;PMS7003;30602;51.060;17.226;2023-04-15T12:05:16;0;0;0
44871;PMS7003;30602;51.060;17.226;2023-04-15T12:09:11;0;0;0
44871;PMS7003;30602;51.060;17.226;2023-04-15T12:12:51;0;0;0
44871;PMS7003;30602;51.060;17.226;2023-04-15T12:16:17;0;0;0
44871;PMS7003;30602;51.060;17.226;2023-04-15T12:20:44;0;0;0
44871;PMS7003;30602;51.060;17.226;2023-04-15T12:24:40;1;0;0
44871;PMS7003;30602;51.060;17.226;2023-04-15T12:28:31;1;0;0
44871;PMS7003;30602;51.060;17.226;2023-04-15T12:31:58;0;0;0
44871;PMS7003;30602;51.060;17.226;2023-04-15T12:36:06;0;0;0
44871;PMS7003;30602;51.060;17.226;2023-04-15T12:39:30;0;0;0
44871;PMS7003;30602;51.060;17.226;2023-04-15T12:42:59;0;0;0
44871;PMS7003;30602;51.060;17.226;2023-04-15T12:46:19;1;1;0
44871;PMS7003;30602;51.060;17.226;2023-04-15T12:50:21;4;4;3
44871;PMS7003;30602;51.060;17.226;2023-04-15T12:53:55;1;1;1
44871;PMS7003;30602;51.060;17.226;2023-04-15T12:57:39;0;0;0
44871;PMS7003;30602;51.060;17.226;2023-04-15T13:01:20;0;0;0
44871;PMS7003;30602;51.060;17.226;2023-04-15T13:05:02;1;1;1
44871;PMS7003;30602;51.060;17.226;2023-04-15T13:08:23;1;1;0
44871;PMS7003;30602;51.060;17.226;2023-04-15T13:11:46;1;0;0
44871;PMS7003;30602;51.060;17.226;2023-04-15T13:15:17;0;0;0
44871;PMS7003;30602;51.060;17.226;2023-04-15T13:19:10;0;0;0
44871;PMS7003;30602;51.060;17.226;2023-04-15T13:22:48;0;0;0
44871;PMS7003;30602;51.060;17.226;2023-04-15T13:26:41;0;0;0
44871;PMS7003;30602;51.060;17.226;2023-04-15T13:30:24;0;0;0
44871;PMS7003;30602;51.060;17.226;2023-04-15T13:34:07;0;0;0
44871;PMS7003;30602;51.060;17.226;2023-04-15T13:37:44;1;0;0
44871;PMS7003;30602;51.060;17.226;2023-04-15T13:41:41;0;0;0
44871;PMS7003;30602;51.060;17.226;2023-04-15T13:45:05;2;0;0
44871;PMS7003;30602;51.060;17.226;2023-04-15T13:48:45;0;0;0
44871;PMS7003;30602;51.060;17.226;2023-04-15T13:52:10;1;1;0
44871;PMS7003;30602;51.060;17.226;2023-04-15T13:56:08;0;0;0
44871;PMS7003;30602;51.060;17.226;2023-04-15T13:59:32;1;0;0
44871;PMS7003;30602;51.060;17.226;2023-04-15T14:03:20;0;0;0
44871;PMS7003;30602;51.060;17.226;2023-04-15T14:07:02;0;0;0
44871;PMS7003;30602;51.060;17.226;2023-04-15T14:10:48;0;0;0
44871;PMS7003;30602;51.060;17.226;2023-04-15T14:14:31;1;1;0
44871;PMS7003;30602;51.060;17.226;2023-04-15T14:17:56;1;1;1
44871;PMS7003;30602;51.060;17.226;2023-04-15T14:22:00;0;0;0
44871;PMS7003;30602;51.060;17.226;2023-04-15T14:25:21;1;0;0
44871;PMS7003;30602;51.060;17.226;2023-04-15T14:28:41;0;0;0
44871;PMS7003;30602;51.060;17.226;2023-04-15T14:32:47;0;0;0
44871;PMS7003;30602;51.060;17.226;2023-04-15T14:36:07;0;0;0
44871;PMS7003;30602;51.060;17.226;2023-04-15T14:39:51;0;0;0
44871;PMS7003;30602;51.060;17.226;2023-04-15T14:43:11;0;0;0
44871;PMS7003;30602;51.060;17.226;2023-04-15T14:46:46;0;0;0
44871;PMS7003;30602;51.060;17.226;2023-04-15T14:50:51;1;1;0
44871;PMS7003;30602;51.060;17.226;2023-04-15T14:54:36;0;0;0
44871;PMS7003;30602;51.060;17.226;2023-04-15T14:58:45;5;4;3
44871;PMS7003;30602;51.060;17.226;2023-04-15T15:02:19;0;0;0
44871;PMS7003;30602;51.060;17.226;2023-04-15T15:06:02;1;1;1
44871;PMS7003;30602;51.060;17.226;2023-04-15T15:10:06;5;4;4
44871;PMS7003;30602;51.060;17.226;2023-04-15T15:18:10;0;0;0
44871;PMS7003;30602;51.060;17.226;2023-04-15T15:22:12;1;1;1
44871;PMS7003;30602;51.060;17.226;2023-04-15T15:25:53;5;5;4
44871;PMS7003;30602;51.060;17.226;2023-04-15T15:30:18;2;1;1
44871;PMS7003;30602;51.060;17.226;2023-04-15T15:34:11;2;1;1
44871;PMS7003;30602;51.060;17.226;2023-04-15T15:38:12;3;3;3
44871;PMS7003;30602;51.060;17.226;2023-04-15T15:41:32;2;2;2
44871;PMS7003;30602;51.060;17.226;2023-04-15T15:45:19;3;3;3
44871;PMS7003;30602;51.060;17.226;2023-04-15T15:49:01;3;2;2
44871;PMS7003;30602;51.060;17.226;2023-04-15T15:52:48;3;1;1
44871;PMS7003;30602;51.060;17.226;2023-04-15T15:56:21;5;4;3
44871;PMS7003;30602;51.060;17.226;2023-04-15T15:59:42;5;4;3
44871;PMS7003;30602;51.060;17.226;2023-04-15T16:03:16;4;3;3
44871;PMS7003;30602;51.060;17.226;2023-04-15T16:07:18;5;5;4
44871;PMS7003;30602;51.060;17.226;2023-04-15T16:11:24;3;3;3
44871;PMS7003;30602;51.060;17.226;2023-04-15T16:15:11;2;0;0
44871;PMS7003;30602;51.060;17.226;2023-04-15T16:18:53;3;2;2
44871;PMS7003;30602;51.060;17.226;2023-04-15T16:22:36;3;2;2
44871;PMS7003;30602;51.060;17.226;2023-04-15T16:26:20;10;10;8
44871;PMS7003;30602;51.060;17.226;2023-04-15T16:29:41;5;5;4
44871;PMS7003;30602;51.060;17.226;2023-04-15T16:33:16;1;1;1
44871;PMS7003;30602;51.060;17.226;2023-04-15T16:36:37;4;2;2
44871;PMS7003;30602;51.060;17.226;2023-04-15T16:40:19;6;5;4
44871;PMS7003;30602;51.060;17.226;2023-04-15T16:43:43;3;3;2
44871;PMS7003;30602;51.060;17.226;2023-04-15T16:47:02;4;3;2
44871;PMS7003;30602;51.060;17.226;2023-04-15T16:50:45;17;13;9
44871;PMS7003;30602;51.060;17.226;2023-04-15T16:54:37;4;3;3
44871;PMS7003;30602;51.060;17.226;2023-04-15T16:58:36;9;8;6
44871;PMS7003;30602;51.060;17.226;2023-04-15T17:02:20;14;12;10
44871;PMS7003;30602;51.060;17.226;2023-04-15T17:05:46;21;20;12
44871;PMS7003;30602;51.060;17.226;2023-04-15T17:09:41;25;22;15
44871;PMS7003;30602;51.060;17.226;2023-04-15T17:13:04;20;16;12
44871;PMS7003;30602;51.060;17.226;2023-04-15T17:16:45;34;29;19
44871;PMS7003;30602;51.060;17.226;2023-04-15T17:20:06;25;23;16
44871;PMS7003;30602;51.060;17.226;2023-04-15T17:23:26;12;9;7
44871;PMS7003;30602;51.060;17.226;2023-04-15T17:26:56;8;8;6
44871;PMS7003;30602;51.060;17.226;2023-04-15T17:30:18;5;5;4
44871;PMS7003;30602;51.060;17.226;2023-04-15T17:34:43;3;2;2
44871;PMS7003;30602;51.060;17.226;2023-04-15T17:38:24;9;7;7
44871;PMS7003;30602;51.060;17.226;2023-04-15T17:42:11;8;7;6
44871;PMS7003;30602;51.060;17.226;2023-04-15T17:46:02;10;8;6
44871;PMS7003;30602;51.060;17.226;2023-04-15T17:49:25;12;10;8
44871;PMS7003;30602;51.060;17.226;2023-04-15T17:56:53;14;10;8
44871;PMS7003;30602;51.060;17.226;2023-04-15T18:00:40;18;15;11
44871;PMS7003;30602;51.060;17.226;2023-04-15T18:04:03;17;15;11
44871;PMS7003;30602;51.060;17.226;2023-04-15T18:07:21;21;17;12
44871;PMS7003;30602;51.060;17.226;2023-04-15T18:10:44;17;15;12
44871;PMS7003;30602;51.060;17.226;2023-04-15T18:14:48;19;17;13
44871;PMS7003;30602;51.060;17.226;2023-04-15T18:18:57;19;16;12
44871;PMS7003;30602;51.060;17.226;2023-04-15T18:22:45;21;19;13
44871;PMS7003;30602;51.060;17.226;2023-04-15T18:26:28;21;17;12
44871;PMS7003;30602;51.060;17.226;2023-04-15T18:30:05;18;16;13
44871;PMS7003;30602;51.060;17.226;2023-04-15T18:34:14;16;16;13
44871;PMS7003;30602;51.060;17.226;2023-04-15T18:37:55;18;15;13
44871;PMS7003;30602;51.060;17.226;2023-04-15T18:41:41;20;17;12
44871;PMS7003;30602;51.060;17.226;2023-04-15T18:45:44;20;18;14
44871;PMS7003;30602;51.060;17.226;2023-04-15T18:49:35;24;20;14
44871;PMS7003;30602;51.060;17.226;2023-04-15T18:52:56;28;21;15
44871;PMS7003;30602;51.060;17.226;2023-04-15T18:57:02;20;19;14
44871;PMS7003;30602;51.060;17.226;2023-04-15T19:00:48;36;30;20
44871;PMS7003;30602;51.060;17.226;2023-04-15T19:04:28;36;33;24
44871;PMS7003;30602;51.060;17.226;2023-04-15T19:12:13;37;32;21
44871;PMS7003;30602;51.060;17.226;2023-04-15T19:16:00;33;29;19
44871;PMS7003;30602;51.060;17.226;2023-04-15T19:20:09;25;23;17
44871;PMS7003;30602;51.060;17.226;2023-04-15T19:23:41;28;25;17
44871;PMS7003;30602;51.060;17.226;2023-04-15T19:27:06;33;30;19
44871;PMS7003;30602;51.060;17.226;2023-04-15T19:30:51;23;22;17
44871;PMS7003;30602;51.060;17.226;2023-04-15T19:34:10;26;25;18
44871;PMS7003;30602;51.060;17.226;2023-04-15T19:37:45;25;22;17
44871;PMS7003;30602;51.060;17.226;2023-04-15T19:42:12;31;26;18
44871;PMS7003;30602;51.060;17.226;2023-04-15T19:46:07;25;22;17
44871;PMS7003;30602;51.060;17.226;2023-04-15T19:49:31;29;27;19
44871;PMS7003;30602;51.060;17.226;2023-04-15T19:53:25;25;24;17
44871;PMS7003;30602;51.060;17.226;2023-04-15T19:57:19;27;24;19
44871;PMS7003;30602;51.060;17.226;2023-04-15T20:01:02;30;28;19
44871;PMS7003;30602;51.060;17.226;2023-04-15T20:05:22;28;27;19
44871;PMS7003;30602;51.060;17.226;2023-04-15T20:09:31;31;28;18
44871;PMS7003;30602;51.060;17.226;2023-04-15T20:13:18;22;20;16
44871;PMS7003;30602;51.060;17.226;2023-04-15T20:16:59;26;21;17
44871;PMS7003;30602;51.060;17.226;2023-04-15T20:20:42;32;26;18
44871;PMS7003;30602;51.060;17.226;2023-04-15T20:24:07;26;25;17
44871;PMS7003;30602;51.060;17.226;2023-04-15T20:27:28;24;21;14
44871;PMS7003;30602;51.060;17.226;2023-04-15T20:31:13;25;20;15
44871;PMS7003;30602;51.060;17.226;2023-04-15T20:35:00;27;25;17
44871;PMS7003;30602;51.060;17.226;2023-04-15T20:38:30;28;26;16
44871;PMS7003;30602;51.060;17.226;2023-04-15T20:41:50;26;23;16
44871;PMS7003;30602;51.060;17.226;2023-04-15T20:45:14;32;27;18
44871;PMS7003;30602;51.060;17.226;2023-04-15T20:48:59;29;26;18
44871;PMS7003;30602;51.060;17.226;2023-04-15T20:53:18;31;28;20
44871;PMS7003;30602;51.060;17.226;2023-04-15T20:57:05;34;29;19
44871;PMS7003;30602;51.060;17.226;2023-04-15T21:00:24;30;27;19
44871;PMS7003;30602;51.060;17.226;2023-04-15T21:03:49;32;28;20
44871;PMS7003;30602;51.060;17.226;2023-04-15T21:07:43;31;28;19
44871;PMS7003;30602;51.060;17.226;2023-04-15T21:11:31;27;26;18
44871;PMS7003;30602;51.060;17.226;2023-04-15T21:15:07;33;29;19
44871;PMS7003;30602;51.060;17.226;2023-04-15T21:19:02;31;25;20
44871;PMS7003;30602;51.060;17.226;2023-04-15T21:22:37;37;29;20
44871;PMS7003;30602;51.060;17.226;2023-04-15T21:26:32;26;25;18
44871;PMS7003;30602;51.060;17.226;2023-04-15T21:30:46;32;31;20
44871;PMS7003;30602;51.060;17.226;2023-04-15T21:34:30;32;32;22
44871;PMS7003;30602;51.060;17.226;2023-04-15T21:38:56;41;35;23
44871;PMS7003;30602;51.060;17.226;2023-04-15T21:42:50;30;27;19
44871;PMS7003;30602;51.060;17.226;2023-04-15T21:46:32;32;27;19
44871;PMS7003;30602;51.060;17.226;2023-04-15T21:50:13;28;23;19
44871;PMS7003;30602;51.060;17.226;2023-04-15T21:54:09;27;25;18
44871;PMS7003;30602;51.060;17.226;2023-04-15T21:57:52;30;24;17
44871;PMS7003;30602;51.060;17.226;2023-04-15T22:01:13;24;21;16
44871;PMS7003;30602;51.060;17.226;2023-04-15T22:05:18;24;24;17
44871;PMS7003;30602;51.060;17.226;2023-04-15T22:08:38;26;21;15
44871;PMS7003;30602;51.060;17.226;2023-04-15T22:12:39;27;23;16
44871;PMS7003;30602;51.060;17.226;2023-04-15T22:16:06;27;25;19
44871;PMS7003;30602;51.060;17.226;2023-04-15T22:19:37;28;26;18
44871;PMS7003;30602;51.060;17.226;2023-04-15T22:23:12;40;33;20
44871;PMS7003;30602;51.060;17.226;2023-04-15T22:26:39;31;26;17
44871;PMS7003;30602;51.060;17.226;2023-04-15T22:30:04;29;27;18
44871;PMS7003;30602;51.060;17.226;2023-04-15T22:33:39;34;29;22
44871;PMS7003;30602;51.060;17.226;2023-04-15T22:37:36;50;41;25
44871;PMS7003;30602;51.060;17.226;2023-04-15T22:41:21;31;31;22
44871;PMS7003;30602;51.060;17.226;2023-04-15T22:45:17;36;32;23
44871;PMS7003;30602;51.060;17.226;2023-04-15T22:48:39;35;31;22
44871;PMS7003;30602;51.060;17.226;2023-04-15T22:52:22;33;33;22
44871;PMS7003;30602;51.060;17.226;2023-04-15T22:55:50;82;63;36
44871;PMS7003;30602;51.060;17.226;2023-04-15T23:03:32;71;53;31
44871;PMS7003;30602;51.060;17.226;2023-04-15T23:07:07;51;43;28
44871;PMS7003;30602;51.060;17.226;2023-04-15T23:10:36;50;40;26
44871;PMS7003;30602;51.060;17.226;2023-04-15T23:14:29;52;43;27
44871;PMS7003;30602;51.060;17.226;2023-04-15T23:19:03;50;41;26
44871;PMS7003;30602;51.060;17.226;2023-04-15T23:22:27;47;36;22
44871;PMS7003;30602;51.060;17.226;2023-04-15T23:26:30;44;37;24
44871;PMS7003;30602;51.060;17.226;2023-04-15T23:30:16;55;45;29
44871;PMS7003;30602;51.060;17.226;2023-04-15T23:33:56;63;50;33
44871;PMS7003;30602;51.060;17.226;2023-04-15T23:37:44;60;47;31
44871;PMS7003;30602;51.060;17.226;2023-04-15T23:41:32;67;53;33
44871;PMS7003;30602;51.060;17.226;2023-04-15T23:45:55;78;60;37
44871;PMS7003;30602;51.060;17.226;2023-04-15T23:50:08;61;49;30
44871;PMS7003;30602;51.060;17.226;2023-04-15T23:53:48;36;33;21
44871;PMS7003;30602;51.060;17.226;2023-04-15T23:57:29;32;31;21
